sensor_id;sensor_type;location;lat;lon;timestamp;pressure;altitude;pressure_sealevel;temperature;humidity
70248;BME280;57641;51.416;5.506;2022-09-09T00:02:21;100864.13;;;20.37;58.64
70248;BME280;57641;51.416;5.506;2022-09-09T00:04:28;100862.91;;;20.33;58.88
70248;BME280;57641;51.416;5.506;2022-09-09T00:06:59;100864.13;;;20.31;58.89
70248;BME280;57641;51.416;5.506;2022-09-09T00:09:30;100867.50;;;20.33;59.21
70248;BME280;57641;51.416;5.506;2022-09-09T00:12:02;100858.34;;;20.34;59.33
70248;BME280;57641;51.416;5.506;2022-09-09T00:17:09;100854.34;;;20.36;58.77
70248;BME280;57641;51.416;5.506;2022-09-09T00:19:48;100852.94;;;20.34;59.39
70248;BME280;57641;51.416;5.506;2022-09-09T00:22:19;100850.84;;;20.29;59.46
70248;BME280;57641;51.416;5.506;2022-09-09T00:24:48;100851.47;;;20.31;59.56
70248;BME280;57641;51.416;5.506;2022-09-09T00:27:24;100843.56;;;20.30;59.51
70248;BME280;57641;51.416;5.506;2022-09-09T00:32:41;100847.31;;;20.22;59.42
70248;BME280;57641;51.416;5.506;2022-09-09T00:35:27;100842.28;;;20.25;59.66
70248;BME280;57641;51.416;5.506;2022-09-09T00:37:57;100846.69;;;20.20;59.42
70248;BME280;57641;51.416;5.506;2022-09-09T00:43:32;100833.22;;;20.13;59.10
70248;BME280;57641;51.416;5.506;2022-09-09T00:49:19;100832.84;;;20.03;59.30
70248;BME280;57641;51.416;5.506;2022-09-09T00:59:51;100821.59;;;20.00;59.72
70248;BME280;57641;51.416;5.506;2022-09-09T01:02:38;100826.16;;;20.06;59.27
70248;BME280;57641;51.416;5.506;2022-09-09T01:05:27;100825.56;;;20.04;59.31
70248;BME280;57641;51.416;5.506;2022-09-09T01:07:57;100825.78;;;20.02;59.55
70248;BME280;57641;51.416;5.506;2022-09-09T01:10:52;100830.97;;;20.04;59.47
70248;BME280;57641;51.416;5.506;2022-09-09T01:13:25;100824.09;;;20.01;59.26
70248;BME280;57641;51.416;5.506;2022-09-09T01:15:53;100818.50;;;20.03;59.17
70248;BME280;57641;51.416;5.506;2022-09-09T01:18:27;100826.38;;;20.04;59.11
70248;BME280;57641;51.416;5.506;2022-09-09T01:24:14;100825.16;;;19.94;59.53
70248;BME280;57641;51.416;5.506;2022-09-09T01:26:46;100829.34;;;19.90;59.62
70248;BME280;57641;51.416;5.506;2022-09-09T01:29:14;100821.88;;;19.92;59.20
70248;BME280;57641;51.416;5.506;2022-09-09T01:31:52;100821.66;;;19.93;59.23
70248;BME280;57641;51.416;5.506;2022-09-09T01:34:18;100818.72;;;19.95;59.33
70248;BME280;57641;51.416;5.506;2022-09-09T01:36:49;100810.59;;;19.95;59.49
70248;BME280;57641;51.416;5.506;2022-09-09T01:39:19;100819.13;;;19.98;59.27
70248;BME280;57641;51.416;5.506;2022-09-09T01:41:45;100808.72;;;19.95;59.00
70248;BME280;57641;51.416;5.506;2022-09-09T01:44:12;100815.59;;;19.98;59.04
70248;BME280;57641;51.416;5.506;2022-09-09T01:46:37;100812.47;;;19.94;58.94
70248;BME280;57641;51.416;5.506;2022-09-09T01:49:05;100801.44;;;19.96;58.98
70248;BME280;57641;51.416;5.506;2022-09-09T01:51:33;100808.34;;;19.92;59.01
70248;BME280;57641;51.416;5.506;2022-09-09T01:53:59;100805.19;;;19.95;59.39
70248;BME280;57641;51.416;5.506;2022-09-09T01:56:43;100804.16;;;19.96;59.15
70248;BME280;57641;51.416;5.506;2022-09-09T02:04:36;100798.56;;;19.84;59.24
70248;BME280;57641;51.416;5.506;2022-09-09T02:07:10;100794.63;;;19.87;59.22
70248;BME280;57641;51.416;5.506;2022-09-09T02:09:42;100791.09;;;19.86;58.84
70248;BME280;57641;51.416;5.506;2022-09-09T02:12:14;100789.81;;;19.89;58.66
70248;BME280;57641;51.416;5.506;2022-09-09T02:14:48;100793.78;;;19.86;59.09
70248;BME280;57641;51.416;5.506;2022-09-09T02:17:21;100795.47;;;19.87;58.97
70248;BME280;57641;51.416;5.506;2022-09-09T02:19:53;100803.78;;;19.86;58.90
70248;BME280;57641;51.416;5.506;2022-09-09T02:22:23;100801.91;;;19.86;58.95
70248;BME280;57641;51.416;5.506;2022-09-09T02:24:50;100795.88;;;19.84;58.84
70248;BME280;57641;51.416;5.506;2022-09-09T02:27:19;100793.41;;;19.83;58.93
70248;BME280;57641;51.416;5.506;2022-09-09T02:29:45;100795.28;;;19.82;58.62
70248;BME280;57641;51.416;5.506;2022-09-09T02:32:15;100789.25;;;19.80;58.99
70248;BME280;57641;51.416;5.506;2022-09-09T02:34:51;100792.16;;;19.78;59.07
70248;BME280;57641;51.416;5.506;2022-09-09T02:37:23;100795.09;;;19.77;58.93
70248;BME280;57641;51.416;5.506;2022-09-09T02:39:50;100787.19;;;19.75;58.69
70248;BME280;57641;51.416;5.506;2022-09-09T02:42:16;100786.34;;;19.75;58.85
70248;BME280;57641;51.416;5.506;2022-09-09T02:44:42;100784.69;;;19.74;58.72
70248;BME280;57641;51.416;5.506;2022-09-09T02:50:04;100791.13;;;19.73;58.64
70248;BME280;57641;51.416;5.506;2022-09-09T02:52:47;100788.25;;;19.68;58.97
70248;BME280;57641;51.416;5.506;2022-09-09T02:55:34;100786.81;;;19.65;59.69
70248;BME280;57641;51.416;5.506;2022-09-09T02:58:08;100789.91;;;19.62;59.66
70248;BME280;57641;51.416;5.506;2022-09-09T03:00:35;100786.59;;;19.67;59.46
70248;BME280;57641;51.416;5.506;2022-09-09T03:03:03;100791.56;;;19.70;59.66
70248;BME280;57641;51.416;5.506;2022-09-09T03:05:29;100787.00;;;19.70;59.68
70248;BME280;57641;51.416;5.506;2022-09-09T03:07:54;100786.78;;;19.72;59.63
70248;BME280;57641;51.416;5.506;2022-09-09T03:10:20;100785.50;;;19.74;59.55
70248;BME280;57641;51.416;5.506;2022-09-09T03:12:45;100779.91;;;19.76;59.70
70248;BME280;57641;51.416;5.506;2022-09-09T03:15:10;100787.19;;;19.75;59.43
70248;BME280;57641;51.416;5.506;2022-09-09T03:17:36;100783.19;;;19.78;59.69
70248;BME280;57641;51.416;5.506;2022-09-09T03:20:03;100796.72;;;19.78;59.70
70248;BME280;57641;51.416;5.506;2022-09-09T03:22:29;100785.91;;;19.78;59.77
70248;BME280;57641;51.416;5.506;2022-09-09T03:24:55;100794.84;;;19.78;59.74
70248;BME280;57641;51.416;5.506;2022-09-09T03:27:20;100798.59;;;19.77;59.85
70248;BME280;57641;51.416;5.506;2022-09-09T03:29:46;100792.97;;;19.79;59.76
70248;BME280;57641;51.416;5.506;2022-09-09T03:32:12;100801.94;;;19.79;59.76
70248;BME280;57641;51.416;5.506;2022-09-09T03:34:38;100796.31;;;19.81;59.85
70248;BME280;57641;51.416;5.506;2022-09-09T03:37:06;100794.44;;;19.81;59.66
70248;BME280;57641;51.416;5.506;2022-09-09T03:39:32;100800.06;;;19.80;59.99
70248;BME280;57641;51.416;5.506;2022-09-09T03:41:57;100800.91;;;19.80;59.90
70248;BME280;57641;51.416;5.506;2022-09-09T03:44:22;100806.31;;;19.80;59.91
70248;BME280;57641;51.416;5.506;2022-09-09T03:46:48;100802.75;;;19.80;59.93
70248;BME280;57641;51.416;5.506;2022-09-09T03:49:13;100792.78;;;19.80;59.88
70248;BME280;57641;51.416;5.506;2022-09-09T03:51:39;100806.94;;;19.83;59.75
70248;BME280;57641;51.416;5.506;2022-09-09T03:54:06;100798.56;;;19.84;59.92
70248;BME280;57641;51.416;5.506;2022-09-09T03:56:34;100790.47;;;19.84;60.32
70248;BME280;57641;51.416;5.506;2022-09-09T03:59:00;100794.84;;;19.85;60.66
70248;BME280;57641;51.416;5.506;2022-09-09T04:01:25;100801.06;;;19.86;60.31
70248;BME280;57641;51.416;5.506;2022-09-09T04:03:51;100801.69;;;19.88;60.30
70248;BME280;57641;51.416;5.506;2022-09-09T04:06:18;100800.03;;;19.87;60.62
70248;BME280;57641;51.416;5.506;2022-09-09T04:08:46;100799.81;;;19.88;60.43
70248;BME280;57641;51.416;5.506;2022-09-09T04:11:14;100795.47;;;19.87;60.28
70248;BME280;57641;51.416;5.506;2022-09-09T04:13:40;100797.09;;;19.88;60.91
70248;BME280;57641;51.416;5.506;2022-09-09T04:16:08;100789.59;;;19.90;60.74
70248;BME280;57641;51.416;5.506;2022-09-09T04:18:34;100792.31;;;19.90;60.72
70248;BME280;57641;51.416;5.506;2022-09-09T04:21:00;100787.53;;;19.92;60.66
70248;BME280;57641;51.416;5.506;2022-09-09T04:23:27;100775.03;;;19.91;60.73
70248;BME280;57641;51.416;5.506;2022-09-09T04:25:55;100785.66;;;19.93;60.96
70248;BME280;57641;51.416;5.506;2022-09-09T04:28:24;100789.19;;;19.93;61.08
70248;BME280;57641;51.416;5.506;2022-09-09T04:30:50;100778.13;;;19.95;60.95
70248;BME280;57641;51.416;5.506;2022-09-09T04:33:18;100774.19;;;19.97;61.15
70248;BME280;57641;51.416;5.506;2022-09-09T04:35:46;100779.59;;;19.97;61.39
70248;BME280;57641;51.416;5.506;2022-09-09T04:38:13;100782.69;;;20.01;61.33
70248;BME280;57641;51.416;5.506;2022-09-09T04:40:41;100767.47;;;20.00;61.55
70248;BME280;57641;51.416;5.506;2022-09-09T04:43:08;100765.19;;;20.03;61.31
70248;BME280;57641;51.416;5.506;2022-09-09T04:45:33;100772.03;;;20.06;60.91
70248;BME280;57641;51.416;5.506;2022-09-09T04:47:59;100770.38;;;20.05;60.92
70248;BME280;57641;51.416;5.506;2022-09-09T04:50:24;100772.25;;;20.04;60.92
70248;BME280;57641;51.416;5.506;2022-09-09T04:52:51;100766.81;;;20.04;60.71
70248;BME280;57641;51.416;5.506;2022-09-09T04:55:16;100777.66;;;20.04;60.80
70248;BME280;57641;51.416;5.506;2022-09-09T04:57:41;100777.66;;;20.04;60.64
70248;BME280;57641;51.416;5.506;2022-09-09T05:00:08;100768.94;;;20.02;60.96
70248;BME280;57641;51.416;5.506;2022-09-09T05:02:38;100770.59;;;20.03;60.87
70248;BME280;57641;51.416;5.506;2022-09-09T05:05:05;100772.69;;;20.01;60.76
70248;BME280;57641;51.416;5.506;2022-09-09T05:07:30;100767.06;;;20.03;61.01
70248;BME280;57641;51.416;5.506;2022-09-09T05:09:56;100772.47;;;20.03;61.11
70248;BME280;57641;51.416;5.506;2022-09-09T05:12:22;100765.78;;;20.05;60.94
70248;BME280;57641;51.416;5.506;2022-09-09T05:14:51;100762.25;;;20.05;60.53
70248;BME280;57641;51.416;5.506;2022-09-09T05:17:17;100766.03;;;20.04;60.58
70248;BME280;57641;51.416;5.506;2022-09-09T05:19:43;100769.53;;;20.04;60.75
70248;BME280;57641;51.416;5.506;2022-09-09T05:22:09;100773.31;;;20.03;60.85
70248;BME280;57641;51.416;5.506;2022-09-09T05:24:36;100771.44;;;20.04;60.71
70248;BME280;57641;51.416;5.506;2022-09-09T05:27:02;100771.44;;;20.04;60.67
70248;BME280;57641;51.416;5.506;2022-09-09T05:29:28;100767.47;;;20.00;60.87
70248;BME280;57641;51.416;5.506;2022-09-09T05:31:53;100765.59;;;20.00;61.14
70248;BME280;57641;51.416;5.506;2022-09-09T05:34:19;100771.03;;;20.00;61.18
70248;BME280;57641;51.416;5.506;2022-09-09T05:36:46;100764.78;;;20.00;60.92
70248;BME280;57641;51.416;5.506;2022-09-09T05:39:12;100771.22;;;19.99;60.99
70248;BME280;57641;51.416;5.506;2022-09-09T05:41:37;100770.66;;;19.90;61.40
70248;BME280;57641;51.416;5.506;2022-09-09T05:44:03;100772.72;;;19.95;61.51
70248;BME280;57641;51.416;5.506;2022-09-09T05:46:29;100779.41;;;19.92;61.64
70248;BME280;57641;51.416;5.506;2022-09-09T05:48:55;100768.97;;;19.96;61.53
70248;BME280;57641;51.416;5.506;2022-09-09T05:51:26;100778.53;;;19.98;62.00
70248;BME280;57641;51.416;5.506;2022-09-09T05:53:53;100781.66;;;19.95;61.77
70248;BME280;57641;51.416;5.506;2022-09-09T05:56:23;100789.59;;;19.97;62.34
70248;BME280;57641;51.416;5.506;2022-09-09T05:58:50;100786.03;;;19.96;62.43
70248;BME280;57641;51.416;5.506;2022-09-09T06:01:19;100795.59;;;19.99;62.61
70248;BME280;57641;51.416;5.506;2022-09-09T06:03:46;100793.91;;;20.04;62.74
70248;BME280;57641;51.416;5.506;2022-09-09T06:06:15;100787.44;;;20.05;62.63
70248;BME280;57641;51.416;5.506;2022-09-09T06:08:43;100788.94;;;20.01;62.90
70248;BME280;57641;51.416;5.506;2022-09-09T06:11:12;100783.66;;;20.13;62.94
70248;BME280;57641;51.416;5.506;2022-09-09T06:13:38;100788.41;;;20.17;62.89
70248;BME280;57641;51.416;5.506;2022-09-09T06:16:16;100785.88;;;20.22;62.75
70248;BME280;57641;51.416;5.506;2022-09-09T06:18:42;100788.22;;;20.19;62.61
70248;BME280;57641;51.416;5.506;2022-09-09T06:27:59;100780.25;;;19.93;64.25
70248;BME280;57641;51.416;5.506;2022-09-09T06:30:25;100784.75;;;19.99;64.06
70248;BME280;57641;51.416;5.506;2022-09-09T06:32:51;100784.72;;;20.05;64.54
70248;BME280;57641;51.416;5.506;2022-09-09T06:35:16;100786.75;;;20.16;63.91
70248;BME280;57641;51.416;5.506;2022-09-09T06:37:45;100773.88;;;20.12;63.86
70248;BME280;57641;51.416;5.506;2022-09-09T06:40:14;100780.75;;;20.14;63.69
70248;BME280;57641;51.416;5.506;2022-09-09T06:42:40;100780.31;;;20.17;63.58
70248;BME280;57641;51.416;5.506;2022-09-09T06:45:07;100771.97;;;20.19;63.43
70248;BME280;57641;51.416;5.506;2022-09-09T06:47:36;100769.00;;;20.27;63.45
70248;BME280;57641;51.416;5.506;2022-09-09T06:50:05;100779.97;;;20.39;62.92
70248;BME280;57641;51.416;5.506;2022-09-09T06:52:36;100771.69;;;20.34;63.24
70248;BME280;57641;51.416;5.506;2022-09-09T06:55:03;100777.47;;;20.37;63.53
70248;BME280;57641;51.416;5.506;2022-09-09T06:57:29;100773.91;;;20.43;62.85
70248;BME280;57641;51.416;5.506;2022-09-09T06:59:55;100770.75;;;20.46;62.77
70248;BME280;57641;51.416;5.506;2022-09-09T07:02:20;100773.69;;;20.45;63.06
70248;BME280;57641;51.416;5.506;2022-09-09T07:04:47;100778.28;;;20.44;63.03
70248;BME280;57641;51.416;5.506;2022-09-09T07:07:12;100779.66;;;20.53;63.09
70248;BME280;57641;51.416;5.506;2022-09-09T07:09:41;100779.25;;;20.56;63.02
70248;BME280;57641;51.416;5.506;2022-09-09T07:12:07;100775.00;;;20.67;62.94
70248;BME280;57641;51.416;5.506;2022-09-09T07:14:36;100779.91;;;20.77;62.68
70248;BME280;57641;51.416;5.506;2022-09-09T07:17:02;100792.56;;;20.83;62.82
70248;BME280;57641;51.416;5.506;2022-09-09T07:19:28;100784.28;;;20.78;61.96
70248;BME280;57641;51.416;5.506;2022-09-09T07:21:54;100780.06;;;20.82;62.18
70248;BME280;57641;51.416;5.506;2022-09-09T07:24:20;100783.97;;;20.86;62.12
70248;BME280;57641;51.416;5.506;2022-09-09T07:26:46;100778.34;;;20.87;62.47
70248;BME280;57641;51.416;5.506;2022-09-09T07:29:13;100774.59;;;20.88;62.03
70248;BME280;57641;51.416;5.506;2022-09-09T07:31:41;100770.31;;;20.99;61.61
70248;BME280;57641;51.416;5.506;2022-09-09T07:34:10;100767.31;;;21.07;61.43
70248;BME280;57641;51.416;5.506;2022-09-09T07:36:40;100774.38;;;21.15;61.41
70248;BME280;57641;51.416;5.506;2022-09-09T07:39:10;100774.06;;;21.23;61.36
70248;BME280;57641;51.416;5.506;2022-09-09T07:41:48;100781.00;;;21.19;60.76
70248;BME280;57641;51.416;5.506;2022-09-09T07:44:20;100776.47;;;21.31;60.38
70248;BME280;57641;51.416;5.506;2022-09-09T07:46:53;100777.66;;;21.17;60.55
70248;BME280;57641;51.416;5.506;2022-09-09T07:49:18;100779.69;;;21.21;59.56
70248;BME280;57641;51.416;5.506;2022-09-09T07:51:46;100779.97;;;21.13;60.05
70248;BME280;57641;51.416;5.506;2022-09-09T07:54:15;100777.66;;;21.17;60.40
70248;BME280;57641;51.416;5.506;2022-09-09T07:56:42;100777.53;;;21.30;59.87
70248;BME280;57641;51.416;5.506;2022-09-09T07:59:08;100781.66;;;21.14;59.71
70248;BME280;57641;51.416;5.506;2022-09-09T08:01:37;100779.53;;;21.16;60.06
70248;BME280;57641;51.416;5.506;2022-09-09T08:04:12;100781.31;;;21.29;60.20
70248;BME280;57641;51.416;5.506;2022-09-09T08:06:45;100776.66;;;21.36;60.35
70248;BME280;57641;51.416;5.506;2022-09-09T08:09:12;100793.44;;;21.44;60.29
70248;BME280;57641;51.416;5.506;2022-09-09T08:11:40;100791.94;;;21.48;59.75
70248;BME280;57641;51.416;5.506;2022-09-09T08:14:07;100788.38;;;21.48;60.00
70248;BME280;57641;51.416;5.506;2022-09-09T08:16:37;100788.84;;;21.45;59.68
70248;BME280;57641;51.416;5.506;2022-09-09T08:19:03;100782.66;;;21.56;59.75
70248;BME280;57641;51.416;5.506;2022-09-09T08:21:31;100778.94;;;21.69;58.92
70248;BME280;57641;51.416;5.506;2022-09-09T08:23:59;100794.03;;;21.65;59.15
70248;BME280;57641;51.416;5.506;2022-09-09T08:26:31;100782.13;;;21.66;58.12
70248;BME280;57641;51.416;5.506;2022-09-09T08:28:58;100775.19;;;21.70;58.45
70248;BME280;57641;51.416;5.506;2022-09-09T08:31:37;100780.69;;;21.63;57.16
70248;BME280;57641;51.416;5.506;2022-09-09T08:34:07;100787.47;;;21.72;58.13
70248;BME280;57641;51.416;5.506;2022-09-09T08:36:36;100784.53;;;21.74;58.38
70248;BME280;57641;51.416;5.506;2022-09-09T08:39:07;100790.63;;;21.87;58.41
70248;BME280;57641;51.416;5.506;2022-09-09T08:49:48;100790.19;;;21.72;56.40
70248;BME280;57641;51.416;5.506;2022-09-09T08:52:25;100797.25;;;21.73;57.02
70248;BME280;57641;51.416;5.506;2022-09-09T08:55:05;100787.91;;;21.69;57.39
70248;BME280;57641;51.416;5.506;2022-09-09T08:57:38;100789.94;;;21.74;57.05
70248;BME280;57641;51.416;5.506;2022-09-09T09:00:08;100798.19;;;21.67;57.16
70248;BME280;57641;51.416;5.506;2022-09-09T09:02:55;100800.28;;;21.83;57.10
70248;BME280;57641;51.416;5.506;2022-09-09T09:05:31;100806.09;;;21.87;57.74
70248;BME280;57641;51.416;5.506;2022-09-09T09:10:51;100805.25;;;21.86;57.14
70248;BME280;57641;51.416;5.506;2022-09-09T09:15:54;100818.53;;;21.95;55.88
70248;BME280;57641;51.416;5.506;2022-09-09T09:18:22;100820.81;;;21.98;56.18
70248;BME280;57641;51.416;5.506;2022-09-09T09:21:03;100813.94;;;21.95;56.09
70248;BME280;57641;51.416;5.506;2022-09-09T09:23:57;100823.88;;;21.83;56.64
70248;BME280;57641;51.416;5.506;2022-09-09T09:26:31;100828.94;;;21.98;56.01
70248;BME280;57641;51.416;5.506;2022-09-09T09:28:59;100829.97;;;21.78;56.40
70248;BME280;57641;51.416;5.506;2022-09-09T09:31:29;100818.97;;;21.73;55.93
70248;BME280;57641;51.416;5.506;2022-09-09T09:33:56;100832.09;;;21.76;55.90
70248;BME280;57641;51.416;5.506;2022-09-09T09:36:41;100822.91;;;21.77;56.04
70248;BME280;57641;51.416;5.506;2022-09-09T09:39:08;100822.22;;;21.82;55.69
70248;BME280;57641;51.416;5.506;2022-09-09T09:41:40;100823.63;;;21.84;55.48
70248;BME280;57641;51.416;5.506;2022-09-09T09:44:29;100812.72;;;21.91;55.98
70248;BME280;57641;51.416;5.506;2022-09-09T09:47:11;100816.13;;;22.05;56.01
70248;BME280;57641;51.416;5.506;2022-09-09T09:49:39;100823.66;;;22.03;54.78
70248;BME280;57641;51.416;5.506;2022-09-09T09:52:06;100818.97;;;22.10;55.38
70248;BME280;57641;51.416;5.506;2022-09-09T09:54:41;100818.72;;;22.11;54.75
70248;BME280;57641;51.416;5.506;2022-09-09T09:57:15;100824.72;;;22.02;56.89
70248;BME280;57641;51.416;5.506;2022-09-09T09:59:42;100822.00;;;22.02;57.69
70248;BME280;57641;51.416;5.506;2022-09-09T10:02:21;100823.53;;;21.98;58.21
70248;BME280;57641;51.416;5.506;2022-09-09T10:07:28;100821.69;;;21.73;57.95
70248;BME280;57641;51.416;5.506;2022-09-09T10:09:57;100825.78;;;21.82;58.70
70248;BME280;57641;51.416;5.506;2022-09-09T10:13:32;100829.97;;;21.78;59.25
70248;BME280;57641;51.416;5.506;2022-09-09T10:18:21;100829.06;;;21.48;59.80
70248;BME280;57641;51.416;5.506;2022-09-09T10:20:55;100832.47;;;21.43;59.75
70248;BME280;57641;51.416;5.506;2022-09-09T10:29:56;100843.22;;;21.32;61.36
70248;BME280;57641;51.416;5.506;2022-09-09T10:35:19;100858.34;;;21.21;61.87
70248;BME280;57641;51.416;5.506;2022-09-09T10:38:13;100851.72;;;21.17;62.01
70248;BME280;57641;51.416;5.506;2022-09-09T10:43:34;100851.50;;;21.19;62.80
70248;BME280;57641;51.416;5.506;2022-09-09T10:49:24;100846.94;;;21.13;62.96
70248;BME280;57641;51.416;5.506;2022-09-09T10:52:15;100842.69;;;21.23;63.34
70248;BME280;57641;51.416;5.506;2022-09-09T10:57:33;100844.91;;;21.51;63.97
70248;BME280;57641;51.416;5.506;2022-09-09T11:00:31;100840.59;;;21.43;63.11
70248;BME280;57641;51.416;5.506;2022-09-09T11:03:00;100843.63;;;21.54;63.18
70248;BME280;57641;51.416;5.506;2022-09-09T11:11:00;100843.19;;;21.57;63.16
70248;BME280;57641;51.416;5.506;2022-09-09T11:13:49;100840.47;;;21.75;63.64
70248;BME280;57641;51.416;5.506;2022-09-09T11:19:03;100839.78;;;21.61;63.93
70248;BME280;57641;51.416;5.506;2022-09-09T11:21:46;100835.66;;;21.77;64.10
70248;BME280;57641;51.416;5.506;2022-09-09T11:24:28;100848.00;;;21.91;64.15
70248;BME280;57641;51.416;5.506;2022-09-09T11:27:06;100838.59;;;21.94;63.70
70248;BME280;57641;51.416;5.506;2022-09-09T11:41:07;100844.41;;;21.97;62.86
70248;BME280;57641;51.416;5.506;2022-09-09T11:43:42;100833.69;;;22.02;63.25
70248;BME280;57641;51.416;5.506;2022-09-09T11:46:09;100837.25;;;22.03;61.83
70248;BME280;57641;51.416;5.506;2022-09-09T11:49:01;100842.56;;;21.91;61.28
70248;BME280;57641;51.416;5.506;2022-09-09T11:51:29;100837.75;;;21.93;61.72
70248;BME280;57641;51.416;5.506;2022-09-09T11:54:32;100832.94;;;21.95;61.56
70248;BME280;57641;51.416;5.506;2022-09-09T11:57:02;100828.78;;;21.92;61.91
70248;BME280;57641;51.416;5.506;2022-09-09T11:59:31;100829.81;;;21.91;62.19
70248;BME280;57641;51.416;5.506;2022-09-09T12:01:59;100834.31;;;22.04;60.87
70248;BME280;57641;51.416;5.506;2022-09-09T12:05:07;100828.13;;;21.97;60.72
70248;BME280;57641;51.416;5.506;2022-09-09T12:10:23;100830.13;;;22.02;60.84
70248;BME280;57641;51.416;5.506;2022-09-09T12:12:50;100837.53;;;22.13;61.09
70248;BME280;57641;51.416;5.506;2022-09-09T12:17:53;100826.72;;;22.06;60.65
70248;BME280;57641;51.416;5.506;2022-09-09T12:20:36;100832.06;;;22.31;61.25
70248;BME280;57641;51.416;5.506;2022-09-09T12:28:39;100810.25;;;22.49;60.23
70248;BME280;57641;51.416;5.506;2022-09-09T12:33:46;100810.59;;;22.53;59.16
70248;BME280;57641;51.416;5.506;2022-09-09T12:36:16;100806.69;;;22.49;58.46
70248;BME280;57641;51.416;5.506;2022-09-09T12:38:45;100814.75;;;22.55;58.74
70248;BME280;57641;51.416;5.506;2022-09-09T12:41:26;100806.59;;;22.55;57.54
70248;BME280;57641;51.416;5.506;2022-09-09T12:44:04;100812.25;;;22.54;57.08
70248;BME280;57641;51.416;5.506;2022-09-09T12:46:41;100812.75;;;22.51;57.91
70248;BME280;57641;51.416;5.506;2022-09-09T12:49:42;100802.94;;;22.50;58.28
70248;BME280;57641;51.416;5.506;2022-09-09T12:52:31;100804.47;;;22.46;58.13
70248;BME280;57641;51.416;5.506;2022-09-09T12:55:03;100802.69;;;22.51;57.61
70248;BME280;57641;51.416;5.506;2022-09-09T12:57:35;100804.50;;;22.57;58.14
70248;BME280;57641;51.416;5.506;2022-09-09T13:00:23;100790.50;;;22.42;57.15
70248;BME280;57641;51.416;5.506;2022-09-09T13:02:55;100789.13;;;22.51;57.47
70248;BME280;57641;51.416;5.506;2022-09-09T13:05:34;100799.84;;;22.46;56.84
70248;BME280;57641;51.416;5.506;2022-09-09T13:08:10;100798.59;;;22.60;57.07
70248;BME280;57641;51.416;5.506;2022-09-09T13:10:40;100793.03;;;22.67;56.94
70248;BME280;57641;51.416;5.506;2022-09-09T13:13:24;100786.66;;;22.61;57.10
70248;BME280;57641;51.416;5.506;2022-09-09T13:15:57;100799.09;;;22.81;56.81
70248;BME280;57641;51.416;5.506;2022-09-09T13:18:27;100789.31;;;22.91;56.24
70248;BME280;57641;51.416;5.506;2022-09-09T13:20:54;100781.63;;;23.11;55.62
70248;BME280;57641;51.416;5.506;2022-09-09T13:23:26;100786.13;;;23.29;55.41
70248;BME280;57641;51.416;5.506;2022-09-09T13:26:23;100785.50;;;23.39;54.82
70248;BME280;57641;51.416;5.506;2022-09-09T13:28:53;100790.84;;;23.34;55.33
70248;BME280;57641;51.416;5.506;2022-09-09T13:31:27;100780.69;;;23.29;54.18
70248;BME280;57641;51.416;5.506;2022-09-09T13:33:54;100783.63;;;23.16;54.34
70248;BME280;57641;51.416;5.506;2022-09-09T13:36:32;100789.06;;;23.16;54.05
70248;BME280;57641;51.416;5.506;2022-09-09T13:39:01;100779.88;;;22.94;54.18
70248;BME280;57641;51.416;5.506;2022-09-09T13:43:58;100777.38;;;23.15;55.02
70248;BME280;57641;51.416;5.506;2022-09-09T13:46:41;100775.22;;;23.29;55.04
70248;BME280;57641;51.416;5.506;2022-09-09T13:51:43;100784.22;;;23.41;54.22
70248;BME280;57641;51.416;5.506;2022-09-09T13:54:12;100779.34;;;23.43;54.19
70248;BME280;57641;51.416;5.506;2022-09-09T13:56:39;100782.78;;;23.27;53.64
70248;BME280;57641;51.416;5.506;2022-09-09T13:59:13;100773.66;;;23.45;53.55
70248;BME280;57641;51.416;5.506;2022-09-09T14:01:40;100773.19;;;23.60;52.72
70248;BME280;57641;51.416;5.506;2022-09-09T14:04:07;100773.78;;;23.62;51.83
70248;BME280;57641;51.416;5.506;2022-09-09T14:06:38;100767.28;;;23.91;51.25
70248;BME280;57641;51.416;5.506;2022-09-09T14:09:06;100765.75;;;23.95;51.40
70248;BME280;57641;51.416;5.506;2022-09-09T14:11:32;100768.03;;;23.86;51.50
70248;BME280;57641;51.416;5.506;2022-09-09T14:13:59;100770.22;;;23.73;50.83
70248;BME280;57641;51.416;5.506;2022-09-09T14:16:26;100773.03;;;23.78;51.75
70248;BME280;57641;51.416;5.506;2022-09-09T14:18:53;100768.53;;;23.72;51.52
70248;BME280;57641;51.416;5.506;2022-09-09T14:21:24;100771.06;;;23.62;51.52
70248;BME280;57641;51.416;5.506;2022-09-09T14:23:52;100770.72;;;23.58;52.17
70248;BME280;57641;51.416;5.506;2022-09-09T14:26:22;100774.63;;;23.62;52.54
70248;BME280;57641;51.416;5.506;2022-09-09T14:28:50;100772.34;;;23.59;52.16
70248;BME280;57641;51.416;5.506;2022-09-09T14:31:16;100777.69;;;23.54;51.62
70248;BME280;57641;51.416;5.506;2022-09-09T14:33:45;100771.47;;;23.82;51.72
70248;BME280;57641;51.416;5.506;2022-09-09T14:36:11;100770.38;;;23.94;52.32
70248;BME280;57641;51.416;5.506;2022-09-09T14:38:40;100765.25;;;23.98;51.09
70248;BME280;57641;51.416;5.506;2022-09-09T14:41:09;100762.63;;;24.03;51.19
70248;BME280;57641;51.416;5.506;2022-09-09T14:43:37;100758.94;;;24.09;50.55
70248;BME280;57641;51.416;5.506;2022-09-09T14:46:11;100761.75;;;24.14;50.82
70248;BME280;57641;51.416;5.506;2022-09-09T14:48:37;100759.63;;;24.16;51.58
70248;BME280;57641;51.416;5.506;2022-09-09T14:51:21;100769.31;;;24.24;51.10
70248;BME280;57641;51.416;5.506;2022-09-09T14:53:52;100763.03;;;24.23;51.67
70248;BME280;57641;51.416;5.506;2022-09-09T14:56:24;100765.50;;;24.25;50.97
70248;BME280;57641;51.416;5.506;2022-09-09T14:58:50;100765.66;;;24.18;50.82
70248;BME280;57641;51.416;5.506;2022-09-09T15:01:19;100755.47;;;24.14;50.33
70248;BME280;57641;51.416;5.506;2022-09-09T15:04:10;100769.44;;;24.17;50.52